Time;durP1;ratioP1;P1;durP2;ratioP2;P2;SDS_P1;SDS_P2;PMS_P1;PMS_P2;Temp;Humidity;BMP_temperature;BMP_pressure;BME280_temperature;BME280_humidity;BME280_pressure;Samples;Min_cycle;Max_cycle;Signal;HPM_P1;HPM_P2
2023/11/03 00:00:34;;;;;;;14.20;3.80;;;;;;;18.51;47.38;96716.89;67981;1274;1016438;-67
2023/11/03 00:03:56;;;;;;;14.20;3.80;;;;;;;18.55;47.33;96706.34;68015;1274;1018726;-68
2023/11/03 00:06:59;;;;;;;15.50;3.80;;;;;;;18.59;47.20;96699.58;68010;1274;1016392;-67
2023/11/03 00:10:01;;;;;;;16.00;3.40;;;;;;;18.65;47.16;96697.11;67977;1274;1016408;-67
2023/11/03 00:13:04;;;;;;;15.70;3.90;;;;;;;18.74;46.93;96694.05;67965;1275;1016069;-68
2023/11/03 00:16:08;;;;;;;19.90;4.50;;;;;;;18.72;46.96;96691.89;67981;1274;1016329;-67
2023/11/03 00:19:10;;;;;;;15.60;3.40;;;;;;;18.70;47.04;96687.02;67998;1274;1016189;-68
2023/11/03 00:22:13;;;;;;;15.10;3.30;;;;;;;18.69;47.13;96680.44;68047;1274;1016499;-67
2023/11/03 00:25:16;;;;;;;15.60;3.80;;;;;;;18.61;47.28;96683.37;67935;1274;1016358;-64
2023/11/03 00:28:21;;;;;;;15.10;3.70;;;;;;;18.76;47.08;96682.02;68005;1274;1016669;-68
2023/11/03 00:31:23;;;;;;;17.70;3.90;;;;;;;18.70;47.20;96677.98;67967;1274;1016461;-67
2023/11/03 00:34:26;;;;;;;15.40;3.70;;;;;;;18.77;47.08;96676.05;67942;1275;1016387;-68
2023/11/03 00:37:28;;;;;;;13.70;3.80;;;;;;;18.70;47.25;96672.60;67948;1274;1016051;-68
2023/11/03 00:40:30;;;;;;;18.30;4.30;;;;;;;18.70;47.29;96669.77;68012;1274;1016247;-67
2023/11/03 00:43:33;;;;;;;19.20;4.50;;;;;;;18.67;47.53;96666.57;68034;1274;1016726;-67
2023/11/03 00:46:38;;;;;;;17.00;3.80;;;;;;;18.75;47.32;96664.15;67964;1274;1016486;-67
2023/11/03 00:49:40;;;;;;;14.90;3.70;;;;;;;18.78;47.30;96662.52;67983;1274;1016873;-67
2023/11/03 00:52:43;;;;;;;16.40;4.10;;;;;;;18.80;47.24;96662.63;68000;1274;1016432;-68
2023/11/03 00:55:45;;;;;;;21.30;4.70;;;;;;;18.91;47.22;96669.55;68032;1274;1016290;-67
2023/11/03 00:58:49;;;;;;;18.30;4.30;;;;;;;18.83;47.29;96668.89;67999;1274;1016070;-68
2023/11/03 01:01:51;;;;;;;;;;;;;;;18.76;47.51;96660.28;68011;1274;1015932;-67
2023/11/03 01:04:55;;;;;;;17.80;4.40;;;;;;;18.75;47.54;96655.79;67976;1275;1016217;-67
2023/11/03 01:07:58;;;;;;;21.80;5.30;;;;;;;18.66;47.82;96657.98;67975;1274;1016473;-68
2023/11/03 01:11:01;;;;;;;17.50;4.90;;;;;;;18.65;47.78;96661.70;67952;1275;1016067;-68
2023/11/03 01:14:04;;;;;;;15.30;4.00;;;;;;;18.87;47.51;96663.81;68028;1275;1016470;-68
2023/11/03 01:17:07;;;;;;;17.00;4.10;;;;;;;18.82;47.57;96660.64;67765;1274;1226369;-67
2023/11/03 01:20:19;;;;;;;18.40;5.40;;;;;;;18.84;47.71;96659.98;67928;1274;1016025;-67
2023/11/03 01:23:22;;;;;;;17.20;4.20;;;;;;;18.79;47.98;96657.96;67989;1274;1016172;-67
2023/11/03 01:26:25;;;;;;;21.50;5.30;;;;;;;18.69;48.64;96650.69;67980;1274;1016534;-67
2023/11/03 01:29:27;;;;;;;17.20;4.40;;;;;;;18.68;48.73;96652.56;68021;1274;1017133;-67
2023/11/03 01:32:30;;;;;;;16.30;4.10;;;;;;;18.59;49.19;96654.61;67998;1275;1017026;-68
2023/11/03 01:35:33;;;;;;;17.90;4.80;;;;;;;18.60;49.47;96648.38;67969;1274;1016467;-68
2023/11/03 01:38:36;;;;;;;18.90;4.70;;;;;;;18.36;50.02;96648.91;67989;1275;1016138;-68
2023/11/03 01:41:39;;;;;;;;;;;;;;;18.29;50.29;96647.40;67991;1274;1016402;-66
2023/11/03 01:44:41;;;;;;;;;;;;;;;18.17;50.73;96645.77;68019;1274;1016461;-67
2023/11/03 01:47:44;;;;;;;18.10;4.60;;;;;;;18.30;50.46;96636.25;67964;1274;1016344;-67
2023/11/03 01:50:46;;;;;;;19.10;4.40;;;;;;;18.19;50.92;96626.23;67910;1274;1016174;-67
2023/11/03 01:53:48;;;;;;;23.40;6.10;;;;;;;18.09;51.52;96626.51;67941;1275;1016789;-67
2023/11/03 01:56:51;;;;;;;15.70;3.70;;;;;;;18.03;51.35;96619.17;67948;1274;1016344;-67
2023/11/03 01:59:54;;;;;;;14.00;3.70;;;;;;;17.98;51.56;96609.79;67945;1274;1016911;-68
2023/11/03 02:02:56;;;;;;;13.00;3.80;;;;;;;17.99;51.97;96601.17;67968;1274;1016722;-66
2023/11/03 02:05:59;;;;;;;14.60;4.20;;;;;;;17.85;52.38;96596.33;67975;1274;1016428;-65
2023/11/03 02:09:01;;;;;;;15.00;4.10;;;;;;;17.81;52.17;96593.86;67988;1274;1016019;-67
2023/11/03 02:12:05;;;;;;;;;;;;;;;17.83;52.33;96591.39;68051;1274;1016446;-67
2023/11/03 02:15:08;;;;;;;14.60;4.00;;;;;;;17.77;52.72;96589.11;68006;1275;1016456;-67
2023/11/03 02:18:12;;;;;;;;;;;;;;;17.78;52.54;96589.55;67982;1275;1016319;-67
2023/11/03 02:21:15;;;;;;;17.80;4.40;;;;;;;17.71;53.09;96584.82;67967;1274;1018174;-68
2023/11/03 02:24:17;;;;;;;15.10;4.00;;;;;;;17.66;52.99;96576.88;67951;1274;1016455;-67
2023/11/03 02:27:19;;;;;;;15.60;4.20;;;;;;;17.62;53.66;96567.30;68005;1274;1015949;-66
2023/11/03 02:30:22;;;;;;;17.10;4.30;;;;;;;17.63;53.75;96559.95;68048;1274;1016614;-68
2023/11/03 02:33:24;;;;;;;16.60;3.90;;;;;;;17.57;53.57;96565.48;68003;1275;1016314;-67
2023/11/03 02:36:27;;;;;;;19.50;4.60;;;;;;;17.48;54.36;96561.63;67976;1274;1016376;-66
2023/11/03 02:39:30;;;;;;;17.90;4.60;;;;;;;17.59;53.66;96555.17;67953;1274;1017122;-65
2023/11/03 02:42:32;;;;;;;21.80;4.50;;;;;;;17.49;54.02;96558.00;67991;1274;1016407;-66
2023/11/03 02:45:34;;;;;;;17.40;4.20;;;;;;;17.46;54.35;96555.38;68017;1275;1016029;-65
2023/11/03 02:48:37;;;;;;;15.50;4.70;;;;;;;17.47;54.29;96555.55;67954;1274;1016489;-68
2023/11/03 02:51:39;;;;;;;13.90;4.10;;;;;;;17.47;54.32;96545.91;67925;1274;1016387;-68
2023/11/03 02:54:42;;;;;;;17.30;4.40;;;;;;;17.47;54.33;96538.66;67989;1274;1016724;-68
2023/11/03 02:57:44;;;;;;;15.20;4.30;;;;;;;17.43;54.43;96526.36;68025;1274;1016142;-68
2023/11/03 03:00:47;;;;;;;14.90;4.00;;;;;;;17.31;55.06;96520.31;67981;1274;1016361;-68
2023/11/03 03:03:49;;;;;;;13.00;3.70;;;;;;;17.47;54.43;96525.61;67958;1274;1017032;-68
2023/11/03 03:06:52;;;;;;;15.10;4.00;;;;;;;17.40;54.63;96521.45;67984;1274;1016703;-67
2023/11/03 03:09:54;;;;;;;18.00;4.70;;;;;;;17.30;54.98;96517.42;68030;1274;1015836;-68
2023/11/03 03:12:57;;;;;;;14.90;3.80;;;;;;;17.26;55.60;96513.71;67977;1274;1016434;-67
2023/11/03 03:16:00;;;;;;;16.50;4.20;;;;;;;17.30;55.03;96512.61;67963;1274;1016460;-66
2023/11/03 03:19:03;;;;;;;18.20;4.30;;;;;;;17.32;55.11;96508.39;67961;1274;1016433;-66
2023/11/03 03:22:05;;;;;;;15.90;4.30;;;;;;;17.33;55.10;96503.07;68009;1274;1016699;-65
2023/11/03 03:25:08;;;;;;;16.60;4.40;;;;;;;17.32;54.94;96500.27;67967;1275;1016486;-68
2023/11/03 03:28:10;;;;;;;;;;;;;;;17.11;55.77;96493.97;68025;1274;1016864;-67
2023/11/03 03:31:13;;;;;;;17.20;4.50;;;;;;;17.16;55.61;96491.81;67976;1274;1016436;-67
2023/11/03 03:34:15;;;;;;;14.40;4.10;;;;;;;17.36;55.15;96480.33;67941;1275;1016215;-67
2023/11/03 03:37:17;;;;;;;18.10;4.50;;;;;;;17.52;54.48;96482.17;67952;1274;1016336;-63
2023/11/03 03:40:20;;;;;;;17.60;4.50;;;;;;;17.67;54.20;96482.89;67974;1275;1016387;-66
2023/11/03 03:43:22;;;;;;;19.60;4.40;;;;;;;17.69;54.26;96485.91;68018;1274;1016490;-66
2023/11/03 03:46:25;;;;;;;17.50;4.70;;;;;;;17.63;54.45;96479.61;68023;1274;1016425;-69
2023/11/03 03:49:27;;;;;;;15.70;4.30;;;;;;;17.61;54.36;96468.47;67963;1274;1016959;-65
2023/11/03 03:52:30;;;;;;;14.30;3.90;;;;;;;17.65;54.55;96468.48;67992;1274;1015864;-68
2023/11/03 03:55:32;;;;;;;17.90;4.50;;;;;;;17.67;54.19;96464.23;68011;1274;1016191;-68
2023/11/03 03:58:34;;;;;;;19.20;5.00;;;;;;;17.69;54.20;96454.71;68001;1274;1016320;-67
2023/11/03 04:01:37;;;;;;;15.90;4.00;;;;;;;17.47;54.73;96452.80;68000;1275;1016396;-68
2023/11/03 04:04:39;;;;;;;15.40;3.90;;;;;;;17.37;54.88;96449.25;67992;1275;1016424;-68
2023/11/03 04:07:42;;;;;;;15.10;4.20;;;;;;;17.50;54.46;96448.46;67968;1274;1016328;-68
2023/11/03 04:10:44;;;;;;;18.20;4.80;;;;;;;17.66;54.12;96447.23;67983;1274;1016443;-68
2023/11/03 04:13:47;;;;;;;16.70;4.10;;;;;;;17.81;53.64;96442.90;68002;1274;1019302;-68
2023/11/03 04:16:50;;;;;;;16.70;4.30;;;;;;;17.71;53.91;96438.05;67948;1274;1016272;-68
2023/11/03 04:19:52;;;;;;;13.20;3.80;;;;;;;17.80;53.57;96435.34;68016;1274;1018716;-68
2023/11/03 04:22:55;;;;;;;;;;;;;;;17.74;53.74;96426.48;68009;1275;1016390;-68
2023/11/03 04:25:57;;;;;;;15.10;3.90;;;;;;;17.65;53.88;96426.31;67995;1274;1016313;-68
2023/11/03 04:29:00;;;;;;;;;;;;;;;17.67;53.87;96414.86;67992;1274;1016264;-67
2023/11/03 04:32:02;;;;;;;16.70;4.30;;;;;;;17.67;53.77;96408.70;68016;1274;1017003;-69
2023/11/03 04:35:05;;;;;;;21.10;4.60;;;;;;;17.60;54.00;96401.55;68004;1274;1016943;-68
2023/11/03 07:06:04;;;;;;;16.80;4.20;;;;;;;13.40;100.00;96328.90;132367;1307;558485;-72
2023/11/03 07:09:09;;;;;;;14.30;4.00;;;;;;;14.50;100.00;96329.39;134607;1289;89590;-71
2023/11/03 07:12:12;;;;;;;16.30;4.40;;;;;;;15.06;100.00;96328.27;134698;1272;23780;-71
2023/11/03 07:15:15;;;;;;;14.40;4.20;;;;;;;14.87;100.00;96329.80;134748;1289;22802;-72
2023/11/03 07:18:18;;;;;;;17.70;4.20;;;;;;;14.71;100.00;96321.25;134708;1289;22607;-72
2023/11/03 07:21:22;;;;;;;14.50;4.00;;;;;;;14.82;100.00;96316.29;134729;1279;22552;-73
2023/11/03 07:24:24;;;;;;;14.90;3.70;;;;;;;14.89;100.00;96310.20;134710;1289;22562;-72
2023/11/03 07:27:26;;;;;;;;;;;;;;;14.97;100.00;96296.39;134728;1289;22529;-72
2023/11/03 07:30:29;;;;;;;15.90;3.70;;;;;;;15.62;100.00;96302.13;134720;1289;22558;-73
2023/11/03 07:33:32;;;;;;;18.40;4.00;;;;;;;15.53;100.00;96289.18;134705;1289;22547;-74
2023/11/03 07:36:35;;;;;;;14.40;4.00;;;;;;;15.24;100.00;96299.04;134723;1289;22589;-71
2023/11/03 07:39:39;;;;;;;15.50;3.90;;;;;;;15.14;100.00;96297.21;135186;1282;22570;-70
2023/11/03 07:42:44;;;;;;;13.30;3.60;;;;;;;15.04;100.00;96319.35;135156;1282;22551;-70
2023/11/03 07:45:47;;;;;;;;;;;;;;;15.43;100.00;96336.36;135175;1282;22697;-72
2023/11/03 07:48:49;;;;;;;15.10;3.80;;;;;;;15.51;100.00;96348.08;135184;1282;22771;-72
2023/11/03 07:51:52;;;;;;;14.70;3.70;;;;;;;15.23;100.00;96343.84;135166;1282;22563;-72
2023/11/03 07:54:55;;;;;;;15.60;4.20;;;;;;;15.44;100.00;96332.32;135379;1278;22537;-72
2023/11/03 07:57:57;;;;;;;;;;;;;;;15.29;100.00;96340.50;135425;1281;24226;-71
2023/11/03 08:01:01;;;;;;;14.20;4.00;;;;;;;15.45;100.00;96337.09;135438;1278;22548;-72
2023/11/03 08:04:04;;;;;;;14.50;4.00;;;;;;;16.02;100.00;96316.48;135422;1281;22543;-72
2023/11/03 08:07:07;;;;;;;13.80;3.60;;;;;;;16.23;100.00;96305.85;135397;1281;22553;-72
2023/11/03 08:10:12;;;;;;;13.90;3.90;;;;;;;16.10;100.00;96313.64;135372;1281;24260;-72
2023/11/03 08:13:14;;;;;;;14.30;4.30;;;;;;;16.37;100.00;96311.05;135355;1281;22570;-72
2023/11/03 08:16:17;;;;;;;;;;;;;;;16.39;100.00;96298.05;135389;1263;23120;-71
2023/11/03 08:19:20;;;;;;;14.10;3.90;;;;;;;16.30;100.00;96295.65;135404;1281;22554;-71
2023/11/03 08:22:23;;;;;;;;;;;;;;;16.48;100.00;96290.90;135479;1281;22512;-71
2023/11/03 08:25:25;;;;;;;10.30;3.40;;;;;;;16.63;100.00;96300.38;135395;1281;22552;-71
2023/11/03 08:28:28;;;;;;;;;;;;;;;16.93;100.00;96298.77;135433;1281;22515;-71
2023/11/03 08:31:31;;;;;;;;;;;;;;;16.61;100.00;96297.92;135447;1281;22546;-71
2023/11/03 08:34:33;;;;;;;13.90;3.60;;;;;;;16.67;100.00;96296.21;135470;1281;22548;-71
2023/11/03 08:37:36;;;;;;;;;;;;;;;16.69;100.00;96287.83;135408;1281;22539;-71
2023/11/03 08:40:40;;;;;;;15.40;3.90;;;;;;;16.84;100.00;96280.94;135701;1278;22564;-71
2023/11/03 08:43:42;;;;;;;12.80;3.50;;;;;;;16.81;100.00;96278.10;135621;1278;22559;-71
2023/11/03 08:46:45;;;;;;;;;;;;;;;16.95;100.00;96269.64;135720;1278;22623;-72
2023/11/03 08:49:48;;;;;;;10.90;3.20;;;;;;;16.85;100.00;96265.18;135699;1278;22534;-72
2023/11/03 08:52:52;;;;;;;;;;;;;;;16.99;100.00;96269.50;135732;1277;22521;-71
2023/11/03 08:55:54;;;;;;;13.20;3.50;;;;;;;17.26;100.00;96260.73;135728;1278;22653;-73
2023/11/03 08:58:57;;;;;;;;;;;;;;;17.32;100.00;96257.80;135735;1278;22648;-71
2023/11/03 09:01:59;;;;;;;13.60;3.60;;;;;;;17.41;100.00;96261.92;135756;1277;22535;-71
2023/11/03 09:05:02;;;;;;;;;;;;;;;17.54;100.00;96263.55;135734;1278;22548;-71
2023/11/03 09:08:05;;;;;;;;;;;;;;;17.51;100.00;96265.73;135761;1277;22538;-72
2023/11/03 09:11:07;;;;;;;11.20;3.60;;;;;;;17.58;100.00;96255.23;135750;1278;22526;-72
2023/11/03 09:14:10;;;;;;;15.20;3.70;;;;;;;17.71;100.00;96248.01;135700;1278;22646;-72
2023/11/03 09:17:13;;;;;;;;;;;;;;;17.50;100.00;96246.09;135747;1278;22498;-72
2023/11/03 09:20:17;;;;;;;15.80;3.90;;;;;;;17.41;100.00;96239.98;135754;1278;22581;-72
2023/11/03 09:23:20;;;;;;;13.50;3.70;;;;;;;17.53;100.00;96232.64;135773;1278;22560;-71
2023/11/03 09:26:23;;;;;;;12.70;3.70;;;;;;;17.57;100.00;96229.10;135665;1277;22537;-71
2023/11/03 09:29:25;;;;;;;17.00;4.80;;;;;;;17.66;100.00;96224.73;135740;1278;22567;-71
2023/11/03 09:32:31;;;;;;;17.20;4.10;;;;;;;17.58;100.00;96218.73;135747;1277;22656;-72
2023/11/03 09:35:35;;;;;;;18.70;5.20;;;;;;;17.63;100.00;96210.33;135760;1278;22550;-72
2023/11/03 09:38:38;;;;;;;28.20;8.60;;;;;;;17.20;100.00;96198.52;135771;1278;23243;-72
2023/11/03 09:41:41;;;;;;;15.40;3.70;;;;;;;17.19;100.00;96193.79;135757;1278;22541;-71
2023/11/03 09:44:45;;;;;;;18.30;3.70;;;;;;;17.19;100.00;96187.37;135704;1278;22537;-72
2023/11/03 09:47:48;;;;;;;13.90;3.80;;;;;;;17.39;100.00;96174.36;135687;1278;22493;-72
2023/11/03 09:50:51;;;;;;;16.90;3.90;;;;;;;17.40;100.00;96171.80;135757;1278;24126;-72
2023/11/03 09:53:53;;;;;;;;;;;;;;;17.31;100.00;96168.39;135621;1277;22515;-72
2023/11/03 09:56:56;;;;;;;14.00;3.70;;;;;;;17.44;100.00;96160.84;135719;1278;22682;-72
2023/11/03 10:00:00;;;;;;;13.30;3.60;;;;;;;17.54;100.00;96159.30;135743;1277;24376;-71
2023/11/03 10:03:04;;;;;;;16.30;4.00;;;;;;;17.56;100.00;96144.74;135735;1278;22646;-71
2023/11/03 10:06:07;;;;;;;13.70;3.70;;;;;;;17.78;100.00;96131.61;135732;1278;22534;-71
2023/11/03 10:09:16;;;;;;;14.30;3.40;;;;;;;17.78;100.00;96128.67;135703;1278;24262;-71
2023/11/03 10:12:19;;;;;;;14.10;3.60;;;;;;;17.77;100.00;96131.45;135687;1278;22547;-72
2023/11/03 10:15:21;;;;;;;16.70;3.90;;;;;;;17.97;100.00;96127.66;135656;1278;22569;-72
2023/11/03 10:18:25;;;;;;;16.30;4.00;;;;;;;17.97;100.00;96116.20;135728;1254;22545;-71
2023/11/03 10:21:28;;;;;;;12.70;3.60;;;;;;;17.98;100.00;96110.22;135705;1278;22534;-72
2023/11/03 10:24:30;;;;;;;14.10;3.70;;;;;;;18.01;100.00;96112.61;135725;1278;25271;-72
2023/11/03 10:27:33;;;;;;;;;;;;;;;18.25;100.00;96102.52;135756;1277;22527;-71
2023/11/03 10:30:36;;;;;;;14.30;3.70;;;;;;;18.05;100.00;96100.00;135686;1278;26541;-72
2023/11/03 10:33:38;;;;;;;12.30;3.60;;;;;;;18.20;100.00;96097.30;135738;1278;22526;-72
2023/11/03 10:36:41;;;;;;;15.00;4.10;;;;;;;18.18;100.00;96093.60;135763;1260;22538;-72
2023/11/03 10:39:45;;;;;;;17.70;5.10;;;;;;;18.02;100.00;96082.78;135757;1278;22567;-72
2023/11/03 10:42:49;;;;;;;12.00;3.30;;;;;;;18.13;100.00;96086.42;135762;1278;23914;-71
2023/11/03 10:45:51;;;;;;;11.70;3.40;;;;;;;18.05;100.00;96088.77;135752;1278;22536;-71
2023/11/03 10:48:54;;;;;;;20.50;5.90;;;;;;;18.06;100.00;96078.25;135709;1278;22585;-72
2023/11/03 10:51:57;;;;;;;;;;;;;;;18.01;100.00;96064.17;135770;1278;22508;-72
2023/11/03 10:55:00;;;;;;;17.90;4.80;;;;;;;17.80;100.00;96053.48;135701;1278;22544;-73
2023/11/03 10:58:03;;;;;;;21.60;5.90;;;;;;;18.00;100.00;96057.41;135697;1278;22549;-72
2023/11/03 11:01:06;;;;;;;19.10;5.00;;;;;;;17.89;100.00;96056.90;135679;1277;22533;-71
2023/11/03 11:04:08;;;;;;;21.60;6.10;;;;;;;17.66;100.00;96055.56;135678;1256;22534;-72
2023/11/03 11:07:14;;;;;;;;;;;;;;;17.85;100.00;96055.97;135718;1277;22575;-71
2023/11/03 11:10:19;;;;;;;19.30;5.30;;;;;;;17.53;100.00;96052.13;135702;1278;22537;-72
2023/11/03 11:13:21;;;;;;;19.80;5.70;;;;;;;17.43;100.00;96051.32;135717;1278;22536;-73
2023/11/03 11:16:24;;;;;;;;;;;;;;;17.51;100.00;96046.33;135731;1278;22523;-72
2023/11/03 11:19:26;;;;;;;17.70;4.60;;;;;;;17.29;100.00;96044.34;135721;1277;22531;-72
2023/11/03 11:22:29;;;;;;;15.50;3.90;;;;;;;17.35;100.00;96042.48;135724;1277;22568;-71
2023/11/03 11:25:33;;;;;;;;;;;;;;;17.59;100.00;96033.77;135697;1277;25271;-72
2023/11/03 11:28:38;;;;;;;23.40;7.10;;;;;;;17.29;100.00;96028.21;135668;1278;22547;-71
2023/11/03 11:31:42;;;;;;;22.90;7.50;;;;;;;17.35;100.00;96025.63;135708;1277;22576;-72
2023/11/03 11:34:44;;;;;;;16.90;4.70;;;;;;;17.39;100.00;96024.16;135710;1277;22540;-72
2023/11/03 11:37:49;;;;;;;;;;;;;;;17.15;100.00;96026.34;135733;1277;22550;-72
2023/11/03 11:40:52;;;;;;;18.20;4.90;;;;;;;16.90;100.00;96030.98;135737;1278;25360;-72
2023/11/03 11:43:55;;;;;;;19.20;5.40;;;;;;;16.80;100.00;96025.98;135740;1278;22586;-72
2023/11/03 11:46:57;;;;;;;19.30;4.90;;;;;;;16.84;100.00;96035.45;135745;1278;22559;-72
2023/11/03 11:50:00;;;;;;;21.50;5.40;;;;;;;16.95;100.00;96024.83;135735;1278;22545;-72
2023/11/03 11:53:03;;;;;;;16.60;4.30;;;;;;;16.60;100.00;96020.27;135712;1278;25370;-72
2023/11/03 11:56:05;;;;;;;20.80;5.20;;;;;;;16.64;100.00;96013.88;135712;1277;22547;-72
2023/11/03 11:59:09;;;;;;;;;;;;;;;16.36;100.00;96005.49;135712;1277;22543;-72
2023/11/03 12:02:11;;;;;;;18.10;4.70;;;;;;;16.14;100.00;95994.30;135720;1277;22551;-71
2023/11/03 12:05:14;;;;;;;;;;;;;;;16.05;100.00;95991.05;135723;1278;22512;-72
2023/11/03 12:08:16;;;;;;;16.40;4.20;;;;;;;16.15;100.00;95984.95;135684;1277;22564;-72
2023/11/03 12:11:20;;;;;;;18.70;4.80;;;;;;;15.97;100.00;95982.33;135728;1261;22610;-72
2023/11/03 12:14:23;;;;;;;20.60;5.70;;;;;;;16.13;100.00;95981.13;135713;1278;24269;-72
2023/11/03 12:17:26;;;;;;;19.80;5.50;;;;;;;16.18;100.00;95984.11;135723;1277;22544;-72
2023/11/03 12:20:28;;;;;;;;;;;;;;;16.01;100.00;96011.13;135725;1277;22543;-72
2023/11/03 12:23:31;;;;;;;18.80;5.10;;;;;;;15.86;100.00;96036.55;135722;1277;22584;-72
2023/11/03 12:26:34;;;;;;;;;;;;;;;15.84;100.00;96043.98;135766;1277;22527;-72
2023/11/03 12:29:36;;;;;;;15.70;4.50;;;;;;;15.81;100.00;96045.70;135715;1277;22559;-72
2023/11/03 12:32:39;;;;;;;19.40;5.00;;;;;;;15.65;100.00;96055.95;135701;1277;22545;-72
2023/11/03 12:35:42;;;;;;;17.20;4.80;;;;;;;15.51;100.00;96048.33;135743;1277;22660;-72
2023/11/03 12:38:44;;;;;;;16.70;4.70;;;;;;;15.52;100.00;96029.77;135702;1276;24354;-72
2023/11/03 12:41:47;;;;;;;;;;;;;;;15.56;100.00;96024.80;135738;1277;22525;-73
2023/11/03 12:44:49;;;;;;;20.70;5.80;;;;;;;15.66;100.00;96033.44;135729;1277;22544;-72
2023/11/03 12:47:53;;;;;;;18.70;5.30;;;;;;;15.70;100.00;96036.15;135698;1261;22554;-71
2023/11/03 12:50:56;;;;;;;18.30;5.20;;;;;;;15.88;100.00;96042.30;135673;1261;22533;-72
2023/11/03 12:53:58;;;;;;;14.50;4.30;;;;;;;15.88;100.00;96030.06;135699;1254;22544;-74
2023/11/03 12:57:01;;;;;;;;;;;;;;;15.97;100.00;96024.41;135753;1254;22514;-72
2023/11/03 13:00:07;;;;;;;19.30;5.20;;;;;;;15.91;100.00;96020.05;135691;1277;22531;-72
2023/11/03 13:03:09;;;;;;;18.50;5.30;;;;;;;16.12;100.00;96013.02;135686;1260;22650;-72
2023/11/03 13:06:12;;;;;;;19.10;5.40;;;;;;;16.00;100.00;95998.80;135745;1277;22581;-73
2023/11/03 13:09:18;;;;;;;17.50;4.90;;;;;;;15.98;100.00;95995.95;135751;1277;22550;-72
2023/11/03 13:12:21;;;;;;;16.50;4.80;;;;;;;15.67;100.00;95995.55;135637;1277;22557;-71
2023/11/03 13:15:27;;;;;;;18.10;5.10;;;;;;;15.55;100.00;95990.81;135692;1262;22557;-72
2023/11/03 13:18:29;;;;;;;17.80;4.70;;;;;;;15.68;100.00;95973.30;135711;1277;22534;-72
2023/11/03 13:21:34;;;;;;;;;;;;;;;15.82;100.00;95969.04;135747;1277;25469;-71
2023/11/03 13:24:37;;;;;;;20.00;5.80;;;;;;;15.64;100.00;95966.11;135621;1277;22522;-71
2023/11/03 13:27:40;;;;;;;19.60;5.60;;;;;;;15.31;100.00;95959.61;135740;1277;22547;-71
2023/11/03 13:30:48;;;;;;;17.00;5.00;;;;;;;15.26;100.00;95944.77;135706;1277;22533;-71
2023/11/03 13:33:51;;;;;;;18.50;4.70;;;;;;;15.32;100.00;95930.05;135690;1277;22541;-72
2023/11/03 13:36:54;;;;;;;16.70;4.50;;;;;;;15.44;100.00;95918.58;135702;1277;25277;-72
2023/11/03 13:39:59;;;;;;;14.00;4.20;;;;;;;15.61;100.00;95915.70;135708;1277;22554;-74
2023/11/03 13:43:02;;;;;;;16.10;5.00;;;;;;;15.39;100.00;95918.19;135706;1277;22564;-74
2023/11/03 13:46:05;;;;;;;16.90;5.00;;;;;;;15.31;100.00;95905.77;135701;1277;22569;-73
2023/11/03 13:49:10;;;;;;;;;;;;;;;15.31;100.00;95903.45;135749;1277;22526;-72
2023/11/03 13:52:13;;;;;;;17.80;5.40;;;;;;;15.34;100.00;95920.40;135700;1277;22554;-71
2023/11/03 13:55:20;;;;;;;20.80;6.40;;;;;;;15.44;100.00;95920.48;135693;1277;22559;-70
2023/11/03 13:58:25;;;;;;;17.10;5.50;;;;;;;15.26;100.00;95910.56;135701;1277;22529;-72
2023/11/03 14:01:28;;;;;;;18.60;5.30;;;;;;;15.25;100.00;95893.34;135720;1277;22642;-71
2023/11/03 14:07:48;;;;;;;18.50;5.70;;;;;;;15.28;100.00;95881.36;135719;1277;24423;-72
2023/11/03 14:10:51;;;;;;;20.80;5.60;;;;;;;15.29;100.00;95895.11;135731;1277;22542;-73
2023/11/03 14:13:54;;;;;;;22.00;6.20;;;;;;;15.15;100.00;95894.61;135687;1277;22547;-72
2023/11/03 14:16:58;;;;;;;23.50;6.50;;;;;;;15.18;100.00;95887.29;135704;1277;25479;-71
2023/11/03 14:20:03;;;;;;;18.70;6.10;;;;;;;15.31;100.00;95900.68;135728;1277;23324;-71
2023/11/03 14:23:10;;;;;;;21.70;6.10;;;;;;;15.36;100.00;95901.80;135740;1277;24046;-72
2023/11/03 14:26:20;;;;;;;24.70;9.70;;;;;;;15.38;100.00;95916.61;135670;1277;22536;-71
2023/11/03 14:29:25;;;;;;;22.00;7.10;;;;;;;15.32;100.00;95924.61;135765;1277;22573;-71
2023/11/03 14:32:29;;;;;;;19.90;5.80;;;;;;;15.33;100.00;95922.38;135727;1277;22566;-72
2023/11/03 14:35:35;;;;;;;18.50;6.10;;;;;;;15.17;100.00;95908.77;135676;1262;22530;-71
2023/11/03 14:38:40;;;;;;;19.60;6.20;;;;;;;15.13;100.00;95906.06;135758;1277;22530;-71
2023/11/03 14:41:43;;;;;;;21.20;6.00;;;;;;;15.25;100.00;95914.13;135676;1277;22572;-71
2023/11/03 14:44:46;;;;;;;20.20;5.90;;;;;;;15.30;100.00;95906.61;135754;1277;22537;-71
2023/11/03 14:47:52;;;;;;;20.30;6.40;;;;;;;15.30;100.00;95891.13;135733;1277;22540;-71
2023/11/03 14:50:54;;;;;;;22.10;7.00;;;;;;;15.33;100.00;95874.48;135737;1277;22537;-72
2023/11/03 14:53:57;;;;;;;19.60;5.90;;;;;;;15.35;100.00;95854.20;135750;1277;22560;-71
2023/11/03 14:57:03;;;;;;;18.60;5.50;;;;;;;15.24;100.00;95834.64;135728;1277;23892;-71
2023/11/03 15:00:06;;;;;;;20.60;6.50;;;;;;;14.92;100.00;95824.63;135732;1277;22543;-72
2023/11/03 15:03:13;;;;;;;29.60;8.70;;;;;;;14.99;100.00;95841.52;135730;1277;22536;-71
2023/11/03 15:06:19;;;;;;;28.70;9.70;;;;;;;14.88;100.00;95850.60;135678;1277;22519;-71
2023/11/03 15:09:25;;;;;;;26.20;8.70;;;;;;;14.99;100.00;95864.52;135743;1260;22557;-71
2023/11/03 15:12:31;;;;;;;23.00;7.50;;;;;;;15.02;100.00;95866.64;135702;1277;22784;-72
2023/11/03 15:15:37;;;;;;;21.30;7.20;;;;;;;14.91;100.00;95890.40;135657;1266;22661;-71
2023/11/03 15:18:41;;;;;;;22.60;6.80;;;;;;;14.75;100.00;95895.40;135730;1259;25559;-71
2023/11/03 15:21:45;;;;;;;19.90;6.20;;;;;;;14.83;100.00;95883.11;135706;1277;22544;-71
2023/11/03 15:24:48;;;;;;;20.30;6.50;;;;;;;14.80;100.00;95878.55;135728;1277;22548;-71
2023/11/03 15:27:53;;;;;;;20.00;6.30;;;;;;;14.88;100.00;95880.60;135742;1277;22643;-71
2023/11/03 15:30:56;;;;;;;21.10;7.20;;;;;;;14.89;100.00;95873.13;135743;1254;24224;-71
2023/11/03 15:34:01;;;;;;;21.20;6.80;;;;;;;14.82;100.00;95903.44;135691;1260;22557;-71
2023/11/03 15:37:06;;;;;;;20.10;6.50;;;;;;;14.96;100.00;95917.88;135668;1259;22563;-71
2023/11/03 15:40:14;;;;;;;19.00;6.20;;;;;;;15.05;100.00;95926.51;135742;1277;22560;-71
2023/11/03 15:43:20;;;;;;;20.90;6.60;;;;;;;15.01;100.00;95939.48;135697;1277;22680;-72
2023/11/03 15:46:26;;;;;;;22.30;6.10;;;;;;;15.14;100.00;95946.07;135748;1277;22540;-71
2023/11/03 15:49:31;;;;;;;23.20;7.00;;;;;;;14.97;100.00;95953.77;135723;1277;24377;-71
2023/11/03 15:52:33;;;;;;;20.30;6.30;;;;;;;14.85;100.00;95946.98;135752;1277;22553;-70
2023/11/03 15:55:36;;;;;;;21.90;6.70;;;;;;;14.97;100.00;95934.70;135695;1277;24246;-71
2023/11/03 15:58:39;;;;;;;;;;;;;;;14.99;100.00;95918.11;135714;1277;22551;-71
2023/11/03 16:01:44;;;;;;;22.80;6.70;;;;;;;15.14;100.00;95895.63;135722;1277;22561;-72
2023/11/03 16:04:47;;;;;;;19.50;5.90;;;;;;;15.11;100.00;95872.46;135750;1268;22536;-71
2023/11/03 16:07:49;;;;;;;20.50;6.30;;;;;;;15.09;100.00;95877.40;135716;1277;22533;-73
2023/11/03 16:10:54;;;;;;;;;;;;;;;15.19;100.00;95903.01;135720;1277;22541;-74
2023/11/03 16:14:00;;;;;;;20.30;6.30;;;;;;;15.17;100.00;95888.83;135682;1277;25415;-73
2023/11/03 16:17:03;;;;;;;21.90;5.90;;;;;;;15.24;100.00;95887.11;135741;1277;22537;-73
2023/11/03 16:20:07;;;;;;;21.80;6.30;;;;;;;15.38;100.00;95890.23;135697;1277;22593;-73
2023/11/03 16:23:10;;;;;;;23.60;7.40;;;;;;;15.41;100.00;95902.23;135742;1260;22611;-74
2023/11/03 16:26:14;;;;;;;21.10;6.50;;;;;;;15.38;100.00;95899.54;135733;1277;25664;-74
2023/11/03 16:29:19;;;;;;;23.60;6.60;;;;;;;15.37;100.00;95887.75;135751;1277;22537;-72
2023/11/03 16:32:24;;;;;;;22.80;7.20;;;;;;;15.16;100.00;95868.63;135734;1277;22546;-72
2023/11/03 16:35:33;;;;;;;24.20;7.50;;;;;;;15.20;100.00;95862.39;135759;1257;23132;-71